sensor_id;sensor_type;location;lat;lon;timestamp;temperature;humidity
20594;DHT22;10455;48.732;10.266;2023-06-22T00:00:04;18.60;99.90
20594;DHT22;10455;48.732;10.266;2023-06-22T00:05:09;18.70;99.90
20594;DHT22;10455;48.732;10.266;2023-06-22T00:10:10;18.60;99.90
20594;DHT22;10455;48.732;10.266;2023-06-22T00:15:14;18.50;99.90
20594;DHT22;10455;48.732;10.266;2023-06-22T00:20:16;18.70;99.90
20594;DHT22;10455;48.732;10.266;2023-06-22T00:25:18;18.70;99.90
20594;DHT22;10455;48.732;10.266;2023-06-22T00:30:21;18.50;99.90
20594;DHT22;10455;48.732;10.266;2023-06-22T00:35:23;18.20;99.90
20594;DHT22;10455;48.732;10.266;2023-06-22T00:40:30;17.90;99.90
20594;DHT22;10455;48.732;10.266;2023-06-22T00:45:34;17.70;99.90
20594;DHT22;10455;48.732;10.266;2023-06-22T00:50:36;17.60;99.90
20594;DHT22;10455;48.732;10.266;2023-06-22T00:55:41;17.50;99.90
20594;DHT22;10455;48.732;10.266;2023-06-22T01:00:45;17.40;99.90
20594;DHT22;10455;48.732;10.266;2023-06-22T01:05:48;17.40;99.90
20594;DHT22;10455;48.732;10.266;2023-06-22T01:10:52;17.30;99.90
20594;DHT22;10455;48.732;10.266;2023-06-22T01:16:01;17.30;99.90
20594;DHT22;10455;48.732;10.266;2023-06-22T01:21:04;17.10;99.90
20594;DHT22;10455;48.732;10.266;2023-06-22T01:26:17;17.10;99.90
20594;DHT22;10455;48.732;10.266;2023-06-22T01:31:23;17.00;99.90
20594;DHT22;10455;48.732;10.266;2023-06-22T01:36:26;17.00;99.90
20594;DHT22;10455;48.732;10.266;2023-06-22T01:41:29;16.90;99.90
20594;DHT22;10455;48.732;10.266;2023-06-22T01:46:34;16.80;99.90
20594;DHT22;10455;48.732;10.266;2023-06-22T01:51:36;16.80;99.90
20594;DHT22;10455;48.732;10.266;2023-06-22T01:56:39;16.60;99.90
20594;DHT22;10455;48.732;10.266;2023-06-22T02:01:44;16.60;99.90
20594;DHT22;10455;48.732;10.266;2023-06-22T02:06:54;16.60;99.90
20594;DHT22;10455;48.732;10.266;2023-06-22T02:11:57;16.50;99.90
20594;DHT22;10455;48.732;10.266;2023-06-22T02:17:02;16.50;99.90
20594;DHT22;10455;48.732;10.266;2023-06-22T02:22:08;16.50;99.90
20594;DHT22;10455;48.732;10.266;2023-06-22T02:27:10;16.30;99.90
20594;DHT22;10455;48.732;10.266;2023-06-22T02:32:13;16.20;99.90
20594;DHT22;10455;48.732;10.266;2023-06-22T02:37:18;16.10;99.90
20594;DHT22;10455;48.732;10.266;2023-06-22T02:42:19;16.20;99.90
20594;DHT22;10455;48.732;10.266;2023-06-22T02:47:23;16.10;99.90
20594;DHT22;10455;48.732;10.266;2023-06-22T02:52:25;16.10;99.90
20594;DHT22;10455;48.732;10.266;2023-06-22T02:57:27;16.20;99.90
20594;DHT22;10455;48.732;10.266;2023-06-22T03:02:30;16.30;99.90
20594;DHT22;10455;48.732;10.266;2023-06-22T03:07:32;16.30;99.90
20594;DHT22;10455;48.732;10.266;2023-06-22T03:12:34;16.30;99.90
20594;DHT22;10455;48.732;10.266;2023-06-22T03:17:38;16.30;99.90
20594;DHT22;10455;48.732;10.266;2023-06-22T03:22:41;16.20;99.90
20594;DHT22;10455;48.732;10.266;2023-06-22T03:27:44;16.10;99.90
20594;DHT22;10455;48.732;10.266;2023-06-22T03:32:47;16.10;99.90
20594;DHT22;10455;48.732;10.266;2023-06-22T03:37:49;16.20;99.90
20594;DHT22;10455;48.732;10.266;2023-06-22T03:42:51;16.20;99.90
20594;DHT22;10455;48.732;10.266;2023-06-22T03:47:54;16.20;99.90
20594;DHT22;10455;48.732;10.266;2023-06-22T03:52:56;16.30;99.90
20594;DHT22;10455;48.732;10.266;2023-06-22T03:57:58;16.70;99.90
20594;DHT22;10455;48.732;10.266;2023-06-22T04:03:07;17.10;99.90
20594;DHT22;10455;48.732;10.266;2023-06-22T04:08:09;17.20;99.90
20594;DHT22;10455;48.732;10.266;2023-06-22T04:13:11;17.40;99.90
20594;DHT22;10455;48.732;10.266;2023-06-22T04:18:14;17.50;99.90
20594;DHT22;10455;48.732;10.266;2023-06-22T04:23:16;17.90;99.90
20594;DHT22;10455;48.732;10.266;2023-06-22T04:28:18;18.80;99.90
20594;DHT22;10455;48.732;10.266;2023-06-22T04:33:21;19.10;99.90
20594;DHT22;10455;48.732;10.266;2023-06-22T04:38:23;18.60;99.90
20594;DHT22;10455;48.732;10.266;2023-06-22T04:43:25;18.60;99.90
20594;DHT22;10455;48.732;10.266;2023-06-22T04:48:32;19.10;99.90
20594;DHT22;10455;48.732;10.266;2023-06-22T04:53:34;21.20;99.90
20594;DHT22;10455;48.732;10.266;2023-06-22T04:58:36;22.00;99.90
20594;DHT22;10455;48.732;10.266;2023-06-22T05:03:39;22.30;99.90
20594;DHT22;10455;48.732;10.266;2023-06-22T05:08:42;23.10;99.90
20594;DHT22;10455;48.732;10.266;2023-06-22T05:13:44;24.40;99.90
20594;DHT22;10455;48.732;10.266;2023-06-22T05:18:47;24.80;99.90
20594;DHT22;10455;48.732;10.266;2023-06-22T05:23:49;25.00;99.90
20594;DHT22;10455;48.732;10.266;2023-06-22T05:28:51;25.40;99.90
20594;DHT22;10455;48.732;10.266;2023-06-22T05:33:55;25.10;99.90
20594;DHT22;10455;48.732;10.266;2023-06-22T05:38:57;25.90;99.90
20594;DHT22;10455;48.732;10.266;2023-06-22T05:43:59;26.40;99.90
20594;DHT22;10455;48.732;10.266;2023-06-22T05:49:02;26.80;99.90
20594;DHT22;10455;48.732;10.266;2023-06-22T05:54:04;27.00;99.90
20594;DHT22;10455;48.732;10.266;2023-06-22T05:59:06;26.90;99.90
20594;DHT22;10455;48.732;10.266;2023-06-22T06:04:10;28.70;99.90
20594;DHT22;10455;48.732;10.266;2023-06-22T06:09:11;28.70;99.90
20594;DHT22;10455;48.732;10.266;2023-06-22T06:14:13;27.60;99.90
20594;DHT22;10455;48.732;10.266;2023-06-22T06:19:19;28.20;99.90
20594;DHT22;10455;48.732;10.266;2023-06-22T06:24:20;28.80;99.90
20594;DHT22;10455;48.732;10.266;2023-06-22T06:29:22;27.60;99.90
20594;DHT22;10455;48.732;10.266;2023-06-22T06:34:26;26.40;99.90
20594;DHT22;10455;48.732;10.266;2023-06-22T06:39:28;26.70;99.90
20594;DHT22;10455;48.732;10.266;2023-06-22T06:44:30;28.70;99.90
20594;DHT22;10455;48.732;10.266;2023-06-22T06:49:33;29.60;99.90
20594;DHT22;10455;48.732;10.266;2023-06-22T06:54:36;30.40;99.90
20594;DHT22;10455;48.732;10.266;2023-06-22T06:59:38;30.10;99.90
20594;DHT22;10455;48.732;10.266;2023-06-22T07:04:41;33.80;99.70
20594;DHT22;10455;48.732;10.266;2023-06-22T07:09:43;33.60;99.20
20594;DHT22;10455;48.732;10.266;2023-06-22T07:14:45;32.60;99.90
20594;DHT22;10455;48.732;10.266;2023-06-22T07:19:48;32.40;99.90
20594;DHT22;10455;48.732;10.266;2023-06-22T07:24:50;32.30;99.90
20594;DHT22;10455;48.732;10.266;2023-06-22T07:29:52;35.00;96.10
20594;DHT22;10455;48.732;10.266;2023-06-22T07:34:57;35.00;95.50
20594;DHT22;10455;48.732;10.266;2023-06-22T07:39:59;34.70;94.00
20594;DHT22;10455;48.732;10.266;2023-06-22T07:45:02;33.90;95.30
20594;DHT22;10455;48.732;10.266;2023-06-22T07:50:06;33.80;94.80
20594;DHT22;10455;48.732;10.266;2023-06-22T07:55:08;34.50;93.70
20594;DHT22;10455;48.732;10.266;2023-06-22T08:00:11;33.40;94.70
20594;DHT22;10455;48.732;10.266;2023-06-22T08:05:17;34.50;93.90
20594;DHT22;10455;48.732;10.266;2023-06-22T08:10:19;36.30;92.20
20594;DHT22;10455;48.732;10.266;2023-06-22T08:15:21;36.60;91.30
20594;DHT22;10455;48.732;10.266;2023-06-22T08:20:25;35.50;91.00
20594;DHT22;10455;48.732;10.266;2023-06-22T08:25:26;34.40;92.90
20594;DHT22;10455;48.732;10.266;2023-06-22T08:30:28;34.10;93.60
20594;DHT22;10455;48.732;10.266;2023-06-22T08:35:32;33.50;95.00
20594;DHT22;10455;48.732;10.266;2023-06-22T08:46:16;34.20;94.50
20594;DHT22;10455;48.732;10.266;2023-06-22T08:51:23;34.60;93.60
20594;DHT22;10455;48.732;10.266;2023-06-22T08:56:25;34.50;94.70
20594;DHT22;10455;48.732;10.266;2023-06-22T09:01:27;35.90;93.10
20594;DHT22;10455;48.732;10.266;2023-06-22T09:06:31;37.30;91.50
20594;DHT22;10455;48.732;10.266;2023-06-22T09:11:33;38.30;89.70
20594;DHT22;10455;48.732;10.266;2023-06-22T09:16:35;37.80;90.50
20594;DHT22;10455;48.732;10.266;2023-06-22T09:21:38;36.30;91.70
20594;DHT22;10455;48.732;10.266;2023-06-22T09:26:40;36.50;92.10
20594;DHT22;10455;48.732;10.266;2023-06-22T09:31:42;38.00;90.00
20594;DHT22;10455;48.732;10.266;2023-06-22T09:36:46;36.50;90.10
20594;DHT22;10455;48.732;10.266;2023-06-22T09:41:48;36.30;91.90
20594;DHT22;10455;48.732;10.266;2023-06-22T09:46:50;35.30;93.60
20594;DHT22;10455;48.732;10.266;2023-06-22T09:51:53;35.50;91.90
20594;DHT22;10455;48.732;10.266;2023-06-22T09:56:55;37.00;90.00
20594;DHT22;10455;48.732;10.266;2023-06-22T10:01:57;36.40;90.90
20594;DHT22;10455;48.732;10.266;2023-06-22T10:07:00;36.30;91.70
20594;DHT22;10455;48.732;10.266;2023-06-22T10:12:02;37.10;91.90
20594;DHT22;10455;48.732;10.266;2023-06-22T10:17:04;37.20;92.20
20594;DHT22;10455;48.732;10.266;2023-06-22T10:22:09;38.80;86.60
20594;DHT22;10455;48.732;10.266;2023-06-22T10:27:11;39.70;84.20
20594;DHT22;10455;48.732;10.266;2023-06-22T10:32:14;40.40;83.00
20594;DHT22;10455;48.732;10.266;2023-06-22T10:37:17;39.70;84.20
20594;DHT22;10455;48.732;10.266;2023-06-22T10:42:19;39.10;85.40
20594;DHT22;10455;48.732;10.266;2023-06-22T10:47:20;38.70;84.80
20594;DHT22;10455;48.732;10.266;2023-06-22T10:52:24;39.60;83.80
20594;DHT22;10455;48.732;10.266;2023-06-22T10:57:26;39.60;84.70
20594;DHT22;10455;48.732;10.266;2023-06-22T11:02:27;40.60;84.30
20594;DHT22;10455;48.732;10.266;2023-06-22T11:07:31;38.20;90.00
20594;DHT22;10455;48.732;10.266;2023-06-22T11:12:33;37.00;88.70
20594;DHT22;10455;48.732;10.266;2023-06-22T11:17:35;35.00;91.70
20594;DHT22;10455;48.732;10.266;2023-06-22T11:22:39;34.90;92.60
20594;DHT22;10455;48.732;10.266;2023-06-22T11:27:41;35.50;90.90
20594;DHT22;10455;48.732;10.266;2023-06-22T11:32:43;36.50;89.30
20594;DHT22;10455;48.732;10.266;2023-06-22T11:37:46;36.00;87.80
20594;DHT22;10455;48.732;10.266;2023-06-22T11:42:48;36.90;87.80
20594;DHT22;10455;48.732;10.266;2023-06-22T11:47:50;37.00;90.00
20594;DHT22;10455;48.732;10.266;2023-06-22T11:52:53;35.50;91.30
20594;DHT22;10455;48.732;10.266;2023-06-22T11:57:56;37.30;88.00
20594;DHT22;10455;48.732;10.266;2023-06-22T12:03:00;38.00;88.90
20594;DHT22;10455;48.732;10.266;2023-06-22T12:08:04;39.30;83.60
20594;DHT22;10455;48.732;10.266;2023-06-22T12:13:05;39.90;81.00
20594;DHT22;10455;48.732;10.266;2023-06-22T12:18:07;41.10;75.80
20594;DHT22;10455;48.732;10.266;2023-06-22T12:23:11;41.00;75.50
20594;DHT22;10455;48.732;10.266;2023-06-22T12:28:13;40.00;74.80
20594;DHT22;10455;48.732;10.266;2023-06-22T12:33:15;39.00;77.50
20594;DHT22;10455;48.732;10.266;2023-06-22T12:38:18;38.70;78.90
20594;DHT22;10455;48.732;10.266;2023-06-22T12:43:20;38.80;81.00
20594;DHT22;10455;48.732;10.266;2023-06-22T12:48:22;39.60;76.50
20594;DHT22;10455;48.732;10.266;2023-06-22T12:53:27;41.40;74.90
20594;DHT22;10455;48.732;10.266;2023-06-22T12:58:28;41.00;75.00
20594;DHT22;10455;48.732;10.266;2023-06-22T13:03:30;40.40;77.00
20594;DHT22;10455;48.732;10.266;2023-06-22T13:08:33;39.80;77.20
20594;DHT22;10455;48.732;10.266;2023-06-22T13:13:36;40.00;78.60
20594;DHT22;10455;48.732;10.266;2023-06-22T13:18:38;39.30;78.30
20594;DHT22;10455;48.732;10.266;2023-06-22T13:23:41;38.00;81.60
20594;DHT22;10455;48.732;10.266;2023-06-22T13:28:43;37.60;80.90
20594;DHT22;10455;48.732;10.266;2023-06-22T13:33:44;38.00;80.30
20594;DHT22;10455;48.732;10.266;2023-06-22T13:38:49;38.00;80.70
20594;DHT22;10455;48.732;10.266;2023-06-22T13:43:51;37.70;78.30
20594;DHT22;10455;48.732;10.266;2023-06-22T13:48:53;37.70;79.90
20594;DHT22;10455;48.732;10.266;2023-06-22T13:53:56;37.90;81.50
20594;DHT22;10455;48.732;10.266;2023-06-22T13:58:58;38.00;79.70
20594;DHT22;10455;48.732;10.266;2023-06-22T14:04:00;37.40;80.90
20594;DHT22;10455;48.732;10.266;2023-06-22T14:09:04;36.80;83.50
20594;DHT22;10455;48.732;10.266;2023-06-22T14:14:06;36.70;82.00
20594;DHT22;10455;48.732;10.266;2023-06-22T14:19:07;37.40;80.90
20594;DHT22;10455;48.732;10.266;2023-06-22T14:24:11;39.20;80.40
20594;DHT22;10455;48.732;10.266;2023-06-22T14:29:13;39.10;78.70
20594;DHT22;10455;48.732;10.266;2023-06-22T14:34:15;39.80;75.70
20594;DHT22;10455;48.732;10.266;2023-06-22T14:39:18;39.00;78.00
20594;DHT22;10455;48.732;10.266;2023-06-22T14:49:24;40.20;75.80
20594;DHT22;10455;48.732;10.266;2023-06-22T14:54:27;38.60;78.40
20594;DHT22;10455;48.732;10.266;2023-06-22T14:59:29;37.60;82.90
20594;DHT22;10455;48.732;10.266;2023-06-22T15:04:31;39.50;78.00
20594;DHT22;10455;48.732;10.266;2023-06-22T15:09:36;40.10;80.30
20594;DHT22;10455;48.732;10.266;2023-06-22T15:14:41;41.20;74.50
20594;DHT22;10455;48.732;10.266;2023-06-22T15:19:43;42.60;71.70
20594;DHT22;10455;48.732;10.266;2023-06-22T15:24:47;42.50;70.70
20594;DHT22;10455;48.732;10.266;2023-06-22T15:29:49;42.30;73.00
20594;DHT22;10455;48.732;10.266;2023-06-22T15:34:51;42.70;70.20
20594;DHT22;10455;48.732;10.266;2023-06-22T15:39:55;41.30;69.70
20594;DHT22;10455;48.732;10.266;2023-06-22T15:44:59;39.10;75.10
20594;DHT22;10455;48.732;10.266;2023-06-22T15:50:01;37.20;80.70
20594;DHT22;10455;48.732;10.266;2023-06-22T15:55:05;37.70;79.40
20594;DHT22;10455;48.732;10.266;2023-06-22T16:00:09;38.20;78.70
20594;DHT22;10455;48.732;10.266;2023-06-22T16:05:14;37.80;75.60
20594;DHT22;10455;48.732;10.266;2023-06-22T16:10:17;36.80;73.60
20594;DHT22;10455;48.732;10.266;2023-06-22T16:15:20;36.70;71.00
20594;DHT22;10455;48.732;10.266;2023-06-22T16:20:22;36.40;73.10
20594;DHT22;10455;48.732;10.266;2023-06-22T16:25:26;36.10;75.20
20594;DHT22;10455;48.732;10.266;2023-06-22T16:30:28;35.20;79.80
20594;DHT22;10455;48.732;10.266;2023-06-22T16:35:30;33.60;82.80
20594;DHT22;10455;48.732;10.266;2023-06-22T16:40:34;32.50;86.40
20594;DHT22;10455;48.732;10.266;2023-06-22T16:45:36;32.00;86.90
20594;DHT22;10455;48.732;10.266;2023-06-22T16:50:38;31.80;88.00
20594;DHT22;10455;48.732;10.266;2023-06-22T16:55:41;31.30;86.60
20594;DHT22;10455;48.732;10.266;2023-06-22T17:00:45;30.50;90.20
20594;DHT22;10455;48.732;10.266;2023-06-22T17:05:47;29.80;90.50
20594;DHT22;10455;48.732;10.266;2023-06-22T17:10:51;29.50;91.20
20594;DHT22;10455;48.732;10.266;2023-06-22T17:15:56;29.40;91.00
20594;DHT22;10455;48.732;10.266;2023-06-22T17:20:59;29.20;94.40
20594;DHT22;10455;48.732;10.266;2023-06-22T17:26:02;28.60;96.90
20594;DHT22;10455;48.732;10.266;2023-06-22T17:31:10;27.80;96.10
20594;DHT22;10455;48.732;10.266;2023-06-22T17:36:12;27.80;95.50
20594;DHT22;10455;48.732;10.266;2023-06-22T17:41:16;27.70;94.30
20594;DHT22;10455;48.732;10.266;2023-06-22T17:46:18;27.50;95.00
20594;DHT22;10455;48.732;10.266;2023-06-22T17:51:20;27.10;95.20
20594;DHT22;10455;48.732;10.266;2023-06-22T17:56:24;27.00;95.20
20594;DHT22;10455;48.732;10.266;2023-06-22T18:01:28;26.90;95.70
20594;DHT22;10455;48.732;10.266;2023-06-22T18:06:33;26.80;96.40
20594;DHT22;10455;48.732;10.266;2023-06-22T18:11:42;26.70;97.60
20594;DHT22;10455;48.732;10.266;2023-06-22T18:16:46;26.20;99.90
20594;DHT22;10455;48.732;10.266;2023-06-22T18:21:48;24.60;99.90
20594;DHT22;10455;48.732;10.266;2023-06-22T18:26:53;21.60;99.90
20594;DHT22;10455;48.732;10.266;2023-06-22T18:31:56;20.60;99.90
20594;DHT22;10455;48.732;10.266;2023-06-22T18:36:59;20.10;99.90
20594;DHT22;10455;48.732;10.266;2023-06-22T18:42:04;19.20;99.90
20594;DHT22;10455;48.732;10.266;2023-06-22T18:47:09;18.40;99.90
20594;DHT22;10455;48.732;10.266;2023-06-22T18:52:15;17.40;99.90
20594;DHT22;10455;48.732;10.266;2023-06-22T18:57:22;17.60;99.90
20594;DHT22;10455;48.732;10.266;2023-06-22T19:02:39;18.20;99.90
20594;DHT22;10455;48.732;10.266;2023-06-22T19:08:00;18.30;99.90
20594;DHT22;10455;48.732;10.266;2023-06-22T19:13:27;18.10;99.90
20594;DHT22;10455;48.732;10.266;2023-06-22T19:18:33;18.40;99.90
20594;DHT22;10455;48.732;10.266;2023-06-22T19:23:36;18.60;99.90
20594;DHT22;10455;48.732;10.266;2023-06-22T19:28:46;18.70;99.90
20594;DHT22;10455;48.732;10.266;2023-06-22T19:33:52;18.40;99.90
20594;DHT22;10455;48.732;10.266;2023-06-22T19:38:57;18.40;99.90
20594;DHT22;10455;48.732;10.266;2023-06-22T19:44:01;18.70;99.90
20594;DHT22;10455;48.732;10.266;2023-06-22T19:49:04;18.60;99.90
20594;DHT22;10455;48.732;10.266;2023-06-22T19:54:07;18.70;99.90
20594;DHT22;10455;48.732;10.266;2023-06-22T19:59:11;18.60;99.90
20594;DHT22;10455;48.732;10.266;2023-06-22T20:04:13;18.80;99.90
20594;DHT22;10455;48.732;10.266;2023-06-22T20:09:15;18.70;99.90
20594;DHT22;10455;48.732;10.266;2023-06-22T20:14:19;18.70;99.90
20594;DHT22;10455;48.732;10.266;2023-06-22T20:19:35;18.70;99.90
20594;DHT22;10455;48.732;10.266;2023-06-22T20:24:37;18.50;99.90
20594;DHT22;10455;48.732;10.266;2023-06-22T20:29:41;18.20;99.90
20594;DHT22;10455;48.732;10.266;2023-06-22T20:34:45;18.10;99.90
20594;DHT22;10455;48.732;10.266;2023-06-22T20:39:48;17.90;99.90
20594;DHT22;10455;48.732;10.266;2023-06-22T20:44:51;17.90;99.90
20594;DHT22;10455;48.732;10.266;2023-06-22T20:49:53;18.00;99.90
20594;DHT22;10455;48.732;10.266;2023-06-22T20:54:59;18.10;99.90
20594;DHT22;10455;48.732;10.266;2023-06-22T21:00:03;18.10;99.90
20594;DHT22;10455;48.732;10.266;2023-06-22T21:05:07;18.10;99.90
20594;DHT22;10455;48.732;10.266;2023-06-22T21:10:09;18.10;99.90
20594;DHT22;10455;48.732;10.266;2023-06-22T21:15:13;18.20;99.90
20594;DHT22;10455;48.732;10.266;2023-06-22T21:20:15;18.20;99.90
20594;DHT22;10455;48.732;10.266;2023-06-22T21:25:17;18.30;99.90
20594;DHT22;10455;48.732;10.266;2023-06-22T21:30:21;18.40;99.90
20594;DHT22;10455;48.732;10.266;2023-06-22T21:35:23;18.60;99.90
20594;DHT22;10455;48.732;10.266;2023-06-22T21:40:24;18.50;99.90
20594;DHT22;10455;48.732;10.266;2023-06-22T21:45:28;18.40;99.90
20594;DHT22;10455;48.732;10.266;2023-06-22T21:50:30;18.40;99.90
20594;DHT22;10455;48.732;10.266;2023-06-22T21:55:31;18.40;99.90
20594;DHT22;10455;48.732;10.266;2023-06-22T22:00:35;18.40;99.90
20594;DHT22;10455;48.732;10.266;2023-06-22T22:05:37;18.10;99.90
20594;DHT22;10455;48.732;10.266;2023-06-22T22:10:38;18.10;99.90
20594;DHT22;10455;48.732;10.266;2023-06-22T22:15:42;18.10;99.90
20594;DHT22;10455;48.732;10.266;2023-06-22T22:20:43;18.10;99.90
20594;DHT22;10455;48.732;10.266;2023-06-22T22:25:46;17.90;99.90
20594;DHT22;10455;48.732;10.266;2023-06-22T22:30:50;17.90;99.90
20594;DHT22;10455;48.732;10.266;2023-06-22T22:35:52;17.90;99.90
20594;DHT22;10455;48.732;10.266;2023-06-22T22:40:54;17.80;99.90
20594;DHT22;10455;48.732;10.266;2023-06-22T22:45:57;17.80;99.90
20594;DHT22;10455;48.732;10.266;2023-06-22T22:50:59;17.80;99.90
20594;DHT22;10455;48.732;10.266;2023-06-22T22:56:04;17.80;99.90
20594;DHT22;10455;48.732;10.266;2023-06-22T23:01:07;17.80;99.90
20594;DHT22;10455;48.732;10.266;2023-06-22T23:06:09;17.80;99.90
20594;DHT22;10455;48.732;10.266;2023-06-22T23:11:11;17.80;99.90
20594;DHT22;10455;48.732;10.266;2023-06-22T23:16:14;17.70;99.90
20594;DHT22;10455;48.732;10.266;2023-06-22T23:21:16;17.60;99.90
20594;DHT22;10455;48.732;10.266;2023-06-22T23:26:18;17.50;99.90
20594;DHT22;10455;48.732;10.266;2023-06-22T23:31:21;17.50;99.90
20594;DHT22;10455;48.732;10.266;2023-06-22T23:36:24;17.60;99.90
20594;DHT22;10455;48.732;10.266;2023-06-22T23:41:26;17.50;99.90
20594;DHT22;10455;48.732;10.266;2023-06-22T23:46:29;17.40;99.90
20594;DHT22;10455;48.732;10.266;2023-06-22T23:51:32;17.40;99.90
20594;DHT22;10455;48.732;10.266;2023-06-22T23:56:34;17.50;99.90
